sensor_id;sensor_type;location;lat;lon;timestamp;temperature;humidity
4596;DHT22;2310;49.978;8.742;2022-11-28T00:03:12;7.40;99.90
4596;DHT22;2310;49.978;8.742;2022-11-28T00:07:14;7.40;99.90
4596;DHT22;2310;49.978;8.742;2022-11-28T00:11:16;7.70;99.90
4596;DHT22;2310;49.978;8.742;2022-11-28T00:15:17;7.70;99.90
4596;DHT22;2310;49.978;8.742;2022-11-28T00:19:18;7.70;99.90
4596;DHT22;2310;49.978;8.742;2022-11-28T00:23:19;7.70;99.90
4596;DHT22;2310;49.978;8.742;2022-11-28T00:27:21;7.50;99.90
4596;DHT22;2310;49.978;8.742;2022-11-28T00:31:25;7.50;99.90
4596;DHT22;2310;49.978;8.742;2022-11-28T00:35:26;7.40;99.90
4596;DHT22;2310;49.978;8.742;2022-11-28T00:39:28;7.20;99.90
4596;DHT22;2310;49.978;8.742;2022-11-28T00:43:29;7.00;99.90
4596;DHT22;2310;49.978;8.742;2022-11-28T00:47:30;7.20;99.90
4596;DHT22;2310;49.978;8.742;2022-11-28T00:51:32;7.20;99.90
4596;DHT22;2310;49.978;8.742;2022-11-28T00:55:38;7.20;99.90
4596;DHT22;2310;49.978;8.742;2022-11-28T00:59:40;6.90;99.90
4596;DHT22;2310;49.978;8.742;2022-11-28T01:03:41;7.10;99.90
4596;DHT22;2310;49.978;8.742;2022-11-28T01:07:43;6.90;99.90
4596;DHT22;2310;49.978;8.742;2022-11-28T01:11:45;7.20;99.90
4596;DHT22;2310;49.978;8.742;2022-11-28T01:15:46;7.10;99.90
4596;DHT22;2310;49.978;8.742;2022-11-28T01:19:48;7.20;99.90
4596;DHT22;2310;49.978;8.742;2022-11-28T01:23:49;7.00;99.90
4596;DHT22;2310;49.978;8.742;2022-11-28T01:27:50;7.10;99.90
4596;DHT22;2310;49.978;8.742;2022-11-28T01:31:51;7.20;99.90
4596;DHT22;2310;49.978;8.742;2022-11-28T01:35:54;7.10;99.90
4596;DHT22;2310;49.978;8.742;2022-11-28T01:39:56;7.30;99.90
4596;DHT22;2310;49.978;8.742;2022-11-28T01:48:28;7.40;99.90
4596;DHT22;2310;49.978;8.742;2022-11-28T01:52:26;7.40;99.90
4596;DHT22;2310;49.978;8.742;2022-11-28T01:56:31;7.50;99.90
4596;DHT22;2310;49.978;8.742;2022-11-28T02:00:32;7.20;99.90
4596;DHT22;2310;49.978;8.742;2022-11-28T02:04:34;7.30;99.90
4596;DHT22;2310;49.978;8.742;2022-11-28T02:08:35;7.20;99.90
4596;DHT22;2310;49.978;8.742;2022-11-28T02:21:12;7.20;99.90
4596;DHT22;2310;49.978;8.742;2022-11-28T02:33:50;7.20;99.90
4596;DHT22;2310;49.978;8.742;2022-11-28T02:42:08;7.50;99.90
4596;DHT22;2310;49.978;8.742;2022-11-28T02:46:19;7.50;99.90
4596;DHT22;2310;49.978;8.742;2022-11-28T02:50:22;7.50;99.90
4596;DHT22;2310;49.978;8.742;2022-11-28T02:54:25;7.20;99.90
4596;DHT22;2310;49.978;8.742;2022-11-28T02:58:27;7.30;99.90
4596;DHT22;2310;49.978;8.742;2022-11-28T03:02:29;7.20;99.90
4596;DHT22;2310;49.978;8.742;2022-11-28T03:06:48;7.00;99.90
4596;DHT22;2310;49.978;8.742;2022-11-28T03:15:01;7.40;99.90
4596;DHT22;2310;49.978;8.742;2022-11-28T03:19:19;7.00;99.90
4596;DHT22;2310;49.978;8.742;2022-11-28T03:23:31;6.80;99.90
4596;DHT22;2310;49.978;8.742;2022-11-28T03:27:33;7.00;99.90
4596;DHT22;2310;49.978;8.742;2022-11-28T03:31:38;7.30;99.90
4596;DHT22;2310;49.978;8.742;2022-11-28T03:35:50;7.40;99.90
4596;DHT22;2310;49.978;8.742;2022-11-28T03:39:54;7.10;99.90
4596;DHT22;2310;49.978;8.742;2022-11-28T03:43:57;7.20;99.90
4596;DHT22;2310;49.978;8.742;2022-11-28T03:48:02;7.10;99.90
4596;DHT22;2310;49.978;8.742;2022-11-28T03:52:19;7.00;99.90
4596;DHT22;2310;49.978;8.742;2022-11-28T03:56:25;7.10;99.90
4596;DHT22;2310;49.978;8.742;2022-11-28T04:00:27;7.10;99.90
4596;DHT22;2310;49.978;8.742;2022-11-28T04:09:06;7.20;99.90
4596;DHT22;2310;49.978;8.742;2022-11-28T04:13:30;6.80;99.90
4596;DHT22;2310;49.978;8.742;2022-11-28T04:17:56;6.90;99.90
4596;DHT22;2310;49.978;8.742;2022-11-28T04:26:06;6.80;99.90
4596;DHT22;2310;49.978;8.742;2022-11-28T04:30:07;6.80;99.90
4596;DHT22;2310;49.978;8.742;2022-11-28T04:34:13;6.90;99.90
4596;DHT22;2310;49.978;8.742;2022-11-28T04:38:16;6.80;99.90
4596;DHT22;2310;49.978;8.742;2022-11-28T04:42:29;6.80;99.90
4596;DHT22;2310;49.978;8.742;2022-11-28T04:46:36;6.80;99.90
4596;DHT22;2310;49.978;8.742;2022-11-28T04:50:41;6.80;99.90
4596;DHT22;2310;49.978;8.742;2022-11-28T04:54:58;6.60;99.90
4596;DHT22;2310;49.978;8.742;2022-11-28T04:58:59;6.30;99.90
4596;DHT22;2310;49.978;8.742;2022-11-28T05:03:01;6.50;99.90
4596;DHT22;2310;49.978;8.742;2022-11-28T05:07:06;6.60;99.90
4596;DHT22;2310;49.978;8.742;2022-11-28T05:11:07;6.70;99.90
4596;DHT22;2310;49.978;8.742;2022-11-28T05:15:09;6.30;99.90
4596;DHT22;2310;49.978;8.742;2022-11-28T05:19:11;6.30;99.90
4596;DHT22;2310;49.978;8.742;2022-11-28T05:23:12;6.30;99.90
4596;DHT22;2310;49.978;8.742;2022-11-28T05:27:14;6.30;99.90
4596;DHT22;2310;49.978;8.742;2022-11-28T05:31:18;6.40;99.90
4596;DHT22;2310;49.978;8.742;2022-11-28T05:35:19;6.30;99.90
4596;DHT22;2310;49.978;8.742;2022-11-28T05:39:22;6.30;99.90
4596;DHT22;2310;49.978;8.742;2022-11-28T05:43:23;6.00;99.90
4596;DHT22;2310;49.978;8.742;2022-11-28T05:47:25;6.20;99.90
4596;DHT22;2310;49.978;8.742;2022-11-28T05:51:26;6.50;99.90
4596;DHT22;2310;49.978;8.742;2022-11-28T05:55:28;6.70;99.90
4596;DHT22;2310;49.978;8.742;2022-11-28T05:59:29;6.40;99.90
4596;DHT22;2310;49.978;8.742;2022-11-28T06:03:31;6.50;99.90
4596;DHT22;2310;49.978;8.742;2022-11-28T06:07:32;6.60;99.90
4596;DHT22;2310;49.978;8.742;2022-11-28T06:11:34;6.40;99.90
4596;DHT22;2310;49.978;8.742;2022-11-28T06:15:35;6.20;99.90
4596;DHT22;2310;49.978;8.742;2022-11-28T06:19:38;6.10;99.90
4596;DHT22;2310;49.978;8.742;2022-11-28T06:23:40;6.10;99.90
4596;DHT22;2310;49.978;8.742;2022-11-28T06:27:41;6.40;99.90
4596;DHT22;2310;49.978;8.742;2022-11-28T06:31:42;6.20;99.90
4596;DHT22;2310;49.978;8.742;2022-11-28T06:35:44;6.30;99.90
4596;DHT22;2310;49.978;8.742;2022-11-28T06:39:45;6.30;99.90
4596;DHT22;2310;49.978;8.742;2022-11-28T06:43:46;6.50;99.90
4596;DHT22;2310;49.978;8.742;2022-11-28T06:47:47;6.70;99.90
4596;DHT22;2310;49.978;8.742;2022-11-28T06:51:48;6.50;99.90
4596;DHT22;2310;49.978;8.742;2022-11-28T06:55:50;6.70;99.90
4596;DHT22;2310;49.978;8.742;2022-11-28T06:59:51;6.90;99.90
4596;DHT22;2310;49.978;8.742;2022-11-28T07:03:52;7.10;99.90
4596;DHT22;2310;49.978;8.742;2022-11-28T07:07:57;7.20;99.90
4596;DHT22;2310;49.978;8.742;2022-11-28T07:11:58;7.20;99.90
4596;DHT22;2310;49.978;8.742;2022-11-28T07:15:59;7.20;99.90
4596;DHT22;2310;49.978;8.742;2022-11-28T07:20:00;7.20;99.90
4596;DHT22;2310;49.978;8.742;2022-11-28T07:24:02;7.30;99.90
4596;DHT22;2310;49.978;8.742;2022-11-28T07:28:03;7.40;99.90
4596;DHT22;2310;49.978;8.742;2022-11-28T07:32:05;7.50;99.90
4596;DHT22;2310;49.978;8.742;2022-11-28T07:36:17;7.50;99.90
4596;DHT22;2310;49.978;8.742;2022-11-28T07:40:18;7.50;99.90
4596;DHT22;2310;49.978;8.742;2022-11-28T07:44:20;7.60;99.90
4596;DHT22;2310;49.978;8.742;2022-11-28T07:48:21;7.70;99.90
4596;DHT22;2310;49.978;8.742;2022-11-28T07:52:23;7.80;99.90
4596;DHT22;2310;49.978;8.742;2022-11-28T07:56:27;7.70;99.90
4596;DHT22;2310;49.978;8.742;2022-11-28T08:00:31;7.60;99.90
4596;DHT22;2310;49.978;8.742;2022-11-28T08:04:33;7.40;99.90
4596;DHT22;2310;49.978;8.742;2022-11-28T08:08:34;7.50;99.90
4596;DHT22;2310;49.978;8.742;2022-11-28T08:12:35;7.60;99.90
4596;DHT22;2310;49.978;8.742;2022-11-28T08:16:36;7.50;99.90
4596;DHT22;2310;49.978;8.742;2022-11-28T08:20:39;7.70;99.90
4596;DHT22;2310;49.978;8.742;2022-11-28T08:24:40;7.80;99.90
4596;DHT22;2310;49.978;8.742;2022-11-28T08:28:42;7.60;99.90
4596;DHT22;2310;49.978;8.742;2022-11-28T08:32:44;7.70;99.90
4596;DHT22;2310;49.978;8.742;2022-11-28T08:36:45;7.70;99.90
4596;DHT22;2310;49.978;8.742;2022-11-28T08:40:47;7.70;99.90
4596;DHT22;2310;49.978;8.742;2022-11-28T08:44:48;7.60;99.90
4596;DHT22;2310;49.978;8.742;2022-11-28T08:48:50;7.60;99.90
4596;DHT22;2310;49.978;8.742;2022-11-28T08:52:52;7.50;99.90
4596;DHT22;2310;49.978;8.742;2022-11-28T08:56:53;8.30;99.90
4596;DHT22;2310;49.978;8.742;2022-11-28T09:00:54;8.90;99.90
4596;DHT22;2310;49.978;8.742;2022-11-28T09:04:56;9.90;99.90
4596;DHT22;2310;49.978;8.742;2022-11-28T09:08:57;9.60;99.90
4596;DHT22;2310;49.978;8.742;2022-11-28T09:12:58;9.90;99.90
4596;DHT22;2310;49.978;8.742;2022-11-28T09:16:59;9.60;99.90
4596;DHT22;2310;49.978;8.742;2022-11-28T09:21:04;9.00;99.90
4596;DHT22;2310;49.978;8.742;2022-11-28T09:25:07;8.90;99.90
4596;DHT22;2310;49.978;8.742;2022-11-28T09:29:08;8.60;99.90
4596;DHT22;2310;49.978;8.742;2022-11-28T09:33:09;8.70;99.90
4596;DHT22;2310;49.978;8.742;2022-11-28T09:37:13;8.80;99.90
4596;DHT22;2310;49.978;8.742;2022-11-28T09:41:37;8.80;99.90
4596;DHT22;2310;49.978;8.742;2022-11-28T09:45:40;8.90;99.90
4596;DHT22;2310;49.978;8.742;2022-11-28T09:49:58;8.90;99.90
4596;DHT22;2310;49.978;8.742;2022-11-28T09:54:22;8.80;99.90
4596;DHT22;2310;49.978;8.742;2022-11-28T09:58:40;8.90;99.90
4596;DHT22;2310;49.978;8.742;2022-11-28T10:07:25;8.80;99.90
4596;DHT22;2310;49.978;8.742;2022-11-28T10:20:14;8.80;99.90
4596;DHT22;2310;49.978;8.742;2022-11-28T10:24:22;8.70;99.90
4596;DHT22;2310;49.978;8.742;2022-11-28T10:28:25;8.90;99.90
4596;DHT22;2310;49.978;8.742;2022-11-28T10:32:33;9.00;99.90
4596;DHT22;2310;49.978;8.742;2022-11-28T10:37:04;9.00;99.90
4596;DHT22;2310;49.978;8.742;2022-11-28T10:41:26;9.20;99.90
4596;DHT22;2310;49.978;8.742;2022-11-28T10:45:50;9.60;99.90
4596;DHT22;2310;49.978;8.742;2022-11-28T10:50:03;9.60;99.90
4596;DHT22;2310;49.978;8.742;2022-11-28T10:58:36;9.80;99.90
4596;DHT22;2310;49.978;8.742;2022-11-28T11:02:39;9.90;99.90
4596;DHT22;2310;49.978;8.742;2022-11-28T11:06:39;9.90;99.90
4596;DHT22;2310;49.978;8.742;2022-11-28T11:15:28;9.80;99.90
4596;DHT22;2310;49.978;8.742;2022-11-28T11:19:35;9.80;99.90
4596;DHT22;2310;49.978;8.742;2022-11-28T11:23:36;10.00;99.90
4596;DHT22;2310;49.978;8.742;2022-11-28T11:27:51;10.00;99.90
4596;DHT22;2310;49.978;8.742;2022-11-28T11:31:51;10.00;99.90
4596;DHT22;2310;49.978;8.742;2022-11-28T11:35:53;10.20;99.90
4596;DHT22;2310;49.978;8.742;2022-11-28T11:39:54;10.20;99.90
4596;DHT22;2310;49.978;8.742;2022-11-28T11:43:56;9.70;99.90
4596;DHT22;2310;49.978;8.742;2022-11-28T11:48:00;10.00;99.90
4596;DHT22;2310;49.978;8.742;2022-11-28T11:56:13;10.50;99.90
4596;DHT22;2310;49.978;8.742;2022-11-28T12:00:18;10.60;99.90
4596;DHT22;2310;49.978;8.742;2022-11-28T12:04:23;10.50;99.90
4596;DHT22;2310;49.978;8.742;2022-11-28T12:12:50;10.50;99.90
4596;DHT22;2310;49.978;8.742;2022-11-28T12:21:29;10.50;99.90
4596;DHT22;2310;49.978;8.742;2022-11-28T12:25:36;10.60;99.90
4596;DHT22;2310;49.978;8.742;2022-11-28T12:29:44;10.50;99.90
4596;DHT22;2310;49.978;8.742;2022-11-28T12:33:53;10.80;99.90
4596;DHT22;2310;49.978;8.742;2022-11-28T12:50:58;10.50;99.90
4596;DHT22;2310;49.978;8.742;2022-11-28T12:59:24;10.80;99.90
4596;DHT22;2310;49.978;8.742;2022-11-28T13:03:43;10.50;99.90
4596;DHT22;2310;49.978;8.742;2022-11-28T13:12:17;10.60;99.90
4596;DHT22;2310;49.978;8.742;2022-11-28T13:21:01;10.80;99.90
4596;DHT22;2310;49.978;8.742;2022-11-28T13:25:49;10.60;99.90
4596;DHT22;2310;49.978;8.742;2022-11-28T13:33:51;10.60;99.90
4596;DHT22;2310;49.978;8.742;2022-11-28T13:38:20;10.60;99.90
4596;DHT22;2310;49.978;8.742;2022-11-28T13:42:30;10.40;99.90
4596;DHT22;2310;49.978;8.742;2022-11-28T13:46:33;10.40;99.90
4596;DHT22;2310;49.978;8.742;2022-11-28T13:50:37;10.50;99.90
4596;DHT22;2310;49.978;8.742;2022-11-28T13:54:40;10.50;99.90
4596;DHT22;2310;49.978;8.742;2022-11-28T14:02:57;10.30;99.90
4596;DHT22;2310;49.978;8.742;2022-11-28T14:07:02;10.40;99.90
4596;DHT22;2310;49.978;8.742;2022-11-28T14:28:42;10.50;99.90
4596;DHT22;2310;49.978;8.742;2022-11-28T14:32:44;10.30;99.90
4596;DHT22;2310;49.978;8.742;2022-11-28T14:36:45;10.50;99.90
4596;DHT22;2310;49.978;8.742;2022-11-28T14:44:59;10.50;99.90
4596;DHT22;2310;49.978;8.742;2022-11-28T14:49:12;10.50;99.90
4596;DHT22;2310;49.978;8.742;2022-11-28T15:06:33;10.40;99.90
4596;DHT22;2310;49.978;8.742;2022-11-28T15:14:50;10.10;99.90
4596;DHT22;2310;49.978;8.742;2022-11-28T15:18:55;10.00;99.90
4596;DHT22;2310;49.978;8.742;2022-11-28T15:22:57;10.00;99.90
4596;DHT22;2310;49.978;8.742;2022-11-28T15:31:18;10.00;99.90
4596;DHT22;2310;49.978;8.742;2022-11-28T15:35:21;10.00;99.90
4596;DHT22;2310;49.978;8.742;2022-11-28T15:39:37;9.80;99.90
4596;DHT22;2310;49.978;8.742;2022-11-28T15:43:42;9.80;99.90
4596;DHT22;2310;49.978;8.742;2022-11-28T15:47:45;9.70;99.90
4596;DHT22;2310;49.978;8.742;2022-11-28T15:51:53;9.70;99.90
4596;DHT22;2310;49.978;8.742;2022-11-28T15:56:08;9.80;99.90
4596;DHT22;2310;49.978;8.742;2022-11-28T16:00:14;9.80;99.90
4596;DHT22;2310;49.978;8.742;2022-11-28T16:04:16;9.80;99.90
4596;DHT22;2310;49.978;8.742;2022-11-28T16:08:27;10.00;99.90
4596;DHT22;2310;49.978;8.742;2022-11-28T16:12:30;9.80;99.90
4596;DHT22;2310;49.978;8.742;2022-11-28T16:16:33;9.80;99.90
4596;DHT22;2310;49.978;8.742;2022-11-28T16:20:36;9.80;99.90
4596;DHT22;2310;49.978;8.742;2022-11-28T16:24:45;9.90;99.90
4596;DHT22;2310;49.978;8.742;2022-11-28T16:37:27;9.70;99.90
4596;DHT22;2310;49.978;8.742;2022-11-28T16:41:29;9.70;99.90
4596;DHT22;2310;49.978;8.742;2022-11-28T16:45:32;9.70;99.90
4596;DHT22;2310;49.978;8.742;2022-11-28T16:49:38;9.70;99.90
4596;DHT22;2310;49.978;8.742;2022-11-28T16:53:50;9.80;99.90
4596;DHT22;2310;49.978;8.742;2022-11-28T17:06:25;9.80;99.90
4596;DHT22;2310;49.978;8.742;2022-11-28T17:10:23;9.70;99.90
4596;DHT22;2310;49.978;8.742;2022-11-28T17:14:27;9.70;99.90
4596;DHT22;2310;49.978;8.742;2022-11-28T17:18:29;9.70;99.90
4596;DHT22;2310;49.978;8.742;2022-11-28T17:22:39;9.70;99.90
4596;DHT22;2310;49.978;8.742;2022-11-28T17:26:42;9.80;99.90
4596;DHT22;2310;49.978;8.742;2022-11-28T17:30:44;9.80;99.90
4596;DHT22;2310;49.978;8.742;2022-11-28T17:34:45;9.80;99.90
4596;DHT22;2310;49.978;8.742;2022-11-28T17:38:47;9.80;99.90
4596;DHT22;2310;49.978;8.742;2022-11-28T17:42:48;9.90;99.90
4596;DHT22;2310;49.978;8.742;2022-11-28T17:46:50;9.80;99.90
4596;DHT22;2310;49.978;8.742;2022-11-28T17:50:52;9.80;99.90
4596;DHT22;2310;49.978;8.742;2022-11-28T17:54:53;9.70;99.90
4596;DHT22;2310;49.978;8.742;2022-11-28T17:58:57;9.60;99.90
4596;DHT22;2310;49.978;8.742;2022-11-28T18:02:59;9.50;99.90
4596;DHT22;2310;49.978;8.742;2022-11-28T18:07:01;9.50;99.90
4596;DHT22;2310;49.978;8.742;2022-11-28T18:11:05;9.50;99.90
4596;DHT22;2310;49.978;8.742;2022-11-28T18:15:06;9.60;99.90
4596;DHT22;2310;49.978;8.742;2022-11-28T18:19:09;9.70;99.90
4596;DHT22;2310;49.978;8.742;2022-11-28T18:23:11;9.70;99.90
4596;DHT22;2310;49.978;8.742;2022-11-28T18:27:12;9.60;99.90
4596;DHT22;2310;49.978;8.742;2022-11-28T18:31:17;9.60;99.90
4596;DHT22;2310;49.978;8.742;2022-11-28T18:35:20;9.60;99.90
4596;DHT22;2310;49.978;8.742;2022-11-28T18:39:21;9.60;99.90
4596;DHT22;2310;49.978;8.742;2022-11-28T18:43:22;9.60;99.90
4596;DHT22;2310;49.978;8.742;2022-11-28T18:47:23;9.70;99.90
4596;DHT22;2310;49.978;8.742;2022-11-28T18:51:31;9.80;99.90
4596;DHT22;2310;49.978;8.742;2022-11-28T18:55:32;9.70;99.90
4596;DHT22;2310;49.978;8.742;2022-11-28T18:59:33;9.80;99.90
4596;DHT22;2310;49.978;8.742;2022-11-28T19:03:35;9.80;99.90
4596;DHT22;2310;49.978;8.742;2022-11-28T19:07:37;9.80;99.90
4596;DHT22;2310;49.978;8.742;2022-11-28T19:11:38;9.80;99.90
4596;DHT22;2310;49.978;8.742;2022-11-28T19:15:40;9.70;99.90
4596;DHT22;2310;49.978;8.742;2022-11-28T19:19:41;9.60;99.90
4596;DHT22;2310;49.978;8.742;2022-11-28T19:23:44;9.50;99.90
4596;DHT22;2310;49.978;8.742;2022-11-28T19:27:48;9.50;99.90
4596;DHT22;2310;49.978;8.742;2022-11-28T19:31:49;9.50;99.90
4596;DHT22;2310;49.978;8.742;2022-11-28T19:35:51;9.50;99.90
4596;DHT22;2310;49.978;8.742;2022-11-28T19:39:52;9.30;99.90
4596;DHT22;2310;49.978;8.742;2022-11-28T19:43:53;9.40;99.90
4596;DHT22;2310;49.978;8.742;2022-11-28T19:47:54;9.40;99.90
4596;DHT22;2310;49.978;8.742;2022-11-28T19:51:56;9.40;99.90
4596;DHT22;2310;49.978;8.742;2022-11-28T19:56:02;9.30;99.90
4596;DHT22;2310;49.978;8.742;2022-11-28T20:00:05;9.20;99.90
4596;DHT22;2310;49.978;8.742;2022-11-28T20:04:06;9.10;99.90
4596;DHT22;2310;49.978;8.742;2022-11-28T20:08:07;9.10;99.90
4596;DHT22;2310;49.978;8.742;2022-11-28T20:12:08;9.10;99.90
4596;DHT22;2310;49.978;8.742;2022-11-28T20:16:11;9.10;99.90
4596;DHT22;2310;49.978;8.742;2022-11-28T20:20:12;9.60;99.90
4596;DHT22;2310;49.978;8.742;2022-11-28T20:24:14;9.60;99.90
4596;DHT22;2310;49.978;8.742;2022-11-28T20:28:15;9.70;99.90
4596;DHT22;2310;49.978;8.742;2022-11-28T20:32:16;9.60;99.90
4596;DHT22;2310;49.978;8.742;2022-11-28T20:36:20;9.60;99.90
4596;DHT22;2310;49.978;8.742;2022-11-28T20:40:22;9.60;99.90
4596;DHT22;2310;49.978;8.742;2022-11-28T20:44:23;9.50;99.90
4596;DHT22;2310;49.978;8.742;2022-11-28T20:48:26;9.40;99.90
4596;DHT22;2310;49.978;8.742;2022-11-28T20:52:27;9.30;99.90
4596;DHT22;2310;49.978;8.742;2022-11-28T20:56:30;9.40;99.90
4596;DHT22;2310;49.978;8.742;2022-11-28T21:00:31;9.40;99.90
4596;DHT22;2310;49.978;8.742;2022-11-28T21:04:32;9.40;99.90
4596;DHT22;2310;49.978;8.742;2022-11-28T21:08:34;9.40;99.90
4596;DHT22;2310;49.978;8.742;2022-11-28T21:12:35;9.40;99.90
4596;DHT22;2310;49.978;8.742;2022-11-28T21:16:37;9.30;99.90
4596;DHT22;2310;49.978;8.742;2022-11-28T21:20:40;9.30;99.90
4596;DHT22;2310;49.978;8.742;2022-11-28T21:24:42;9.30;99.90
4596;DHT22;2310;49.978;8.742;2022-11-28T21:28:49;9.20;99.90
4596;DHT22;2310;49.978;8.742;2022-11-28T21:32:50;9.30;99.90
4596;DHT22;2310;49.978;8.742;2022-11-28T21:36:52;9.30;99.90
4596;DHT22;2310;49.978;8.742;2022-11-28T21:40:53;9.30;99.90
4596;DHT22;2310;49.978;8.742;2022-11-28T21:44:55;9.30;99.90
4596;DHT22;2310;49.978;8.742;2022-11-28T21:48:56;9.30;99.90
4596;DHT22;2310;49.978;8.742;2022-11-28T21:52:58;9.40;99.90
4596;DHT22;2310;49.978;8.742;2022-11-28T21:56:59;9.40;99.90
4596;DHT22;2310;49.978;8.742;2022-11-28T22:01:02;9.40;99.90
4596;DHT22;2310;49.978;8.742;2022-11-28T22:05:04;9.40;99.90
4596;DHT22;2310;49.978;8.742;2022-11-28T22:09:05;9.40;99.90
4596;DHT22;2310;49.978;8.742;2022-11-28T22:13:10;9.40;99.90
4596;DHT22;2310;49.978;8.742;2022-11-28T22:17:11;9.30;99.90
4596;DHT22;2310;49.978;8.742;2022-11-28T22:21:13;9.30;99.90
4596;DHT22;2310;49.978;8.742;2022-11-28T22:25:17;9.30;99.90
4596;DHT22;2310;49.978;8.742;2022-11-28T22:29:19;9.30;99.90
4596;DHT22;2310;49.978;8.742;2022-11-28T22:33:20;9.20;99.90
4596;DHT22;2310;49.978;8.742;2022-11-28T22:37:21;9.20;99.90
4596;DHT22;2310;49.978;8.742;2022-11-28T22:41:23;9.20;99.90
4596;DHT22;2310;49.978;8.742;2022-11-28T22:45:26;9.30;99.90
4596;DHT22;2310;49.978;8.742;2022-11-28T22:49:27;9.30;99.90
4596;DHT22;2310;49.978;8.742;2022-11-28T22:53:28;9.30;99.90
4596;DHT22;2310;49.978;8.742;2022-11-28T22:57:30;9.30;99.90
4596;DHT22;2310;49.978;8.742;2022-11-28T23:01:32;9.30;99.90
4596;DHT22;2310;49.978;8.742;2022-11-28T23:05:33;9.50;99.90
4596;DHT22;2310;49.978;8.742;2022-11-28T23:09:36;9.50;99.90
4596;DHT22;2310;49.978;8.742;2022-11-28T23:13:38;9.30;99.90
4596;DHT22;2310;49.978;8.742;2022-11-28T23:17:39;9.30;99.90
4596;DHT22;2310;49.978;8.742;2022-11-28T23:21:42;9.40;99.90
4596;DHT22;2310;49.978;8.742;2022-11-28T23:25:44;9.50;99.90
4596;DHT22;2310;49.978;8.742;2022-11-28T23:29:45;9.50;99.90
4596;DHT22;2310;49.978;8.742;2022-11-28T23:33:46;9.40;99.90
4596;DHT22;2310;49.978;8.742;2022-11-28T23:37:47;9.40;99.90
4596;DHT22;2310;49.978;8.742;2022-11-28T23:41:49;9.40;99.90
4596;DHT22;2310;49.978;8.742;2022-11-28T23:45:50;9.30;99.90
4596;DHT22;2310;49.978;8.742;2022-11-28T23:49:51;9.30;99.90
4596;DHT22;2310;49.978;8.742;2022-11-28T23:53:52;9.30;99.90
4596;DHT22;2310;49.978;8.742;2022-11-28T23:57:54;9.40;99.90
